sensor_id;sensor_type;location;lat;lon;timestamp;P1;durP1;ratioP1;P2;durP2;ratioP2
18376;SDS011;9315;52.624;13.544;2024-02-04T00:00:48;13.87;;;2.40;;
18376;SDS011;9315;52.624;13.544;2024-02-04T00:03:15;14.10;;;1.80;;
18376;SDS011;9315;52.624;13.544;2024-02-04T00:05:43;16.23;;;1.83;;
18376;SDS011;9315;52.624;13.544;2024-02-04T00:08:11;15.60;;;2.40;;
18376;SDS011;9315;52.624;13.544;2024-02-04T00:10:39;15.97;;;2.17;;
18376;SDS011;9315;52.624;13.544;2024-02-04T00:13:07;16.60;;;2.47;;
18376;SDS011;9315;52.624;13.544;2024-02-04T00:15:34;14.23;;;2.30;;
18376;SDS011;9315;52.624;13.544;2024-02-04T00:18:02;14.10;;;2.10;;
18376;SDS011;9315;52.624;13.544;2024-02-04T00:20:30;11.97;;;1.60;;
18376;SDS011;9315;52.624;13.544;2024-02-04T00:22:59;16.80;;;2.10;;
18376;SDS011;9315;52.624;13.544;2024-02-04T00:25:26;15.13;;;2.30;;
18376;SDS011;9315;52.624;13.544;2024-02-04T00:27:55;15.97;;;1.97;;
18376;SDS011;9315;52.624;13.544;2024-02-04T00:30:23;15.97;;;2.47;;
18376;SDS011;9315;52.624;13.544;2024-02-04T00:32:50;14.57;;;2.03;;
18376;SDS011;9315;52.624;13.544;2024-02-04T00:35:18;16.73;;;2.10;;
18376;SDS011;9315;52.624;13.544;2024-02-04T00:37:45;14.33;;;2.37;;
18376;SDS011;9315;52.624;13.544;2024-02-04T00:40:14;13.33;;;2.27;;
18376;SDS011;9315;52.624;13.544;2024-02-04T00:42:41;11.87;;;2.00;;
18376;SDS011;9315;52.624;13.544;2024-02-04T00:45:09;16.40;;;2.93;;
18376;SDS011;9315;52.624;13.544;2024-02-04T00:47:37;13.27;;;1.93;;
18376;SDS011;9315;52.624;13.544;2024-02-04T00:50:05;18.20;;;2.43;;
18376;SDS011;9315;52.624;13.544;2024-02-04T00:52:33;13.83;;;2.00;;
18376;SDS011;9315;52.624;13.544;2024-02-04T00:55:01;14.57;;;2.03;;
18376;SDS011;9315;52.624;13.544;2024-02-04T00:57:29;15.63;;;2.13;;
18376;SDS011;9315;52.624;13.544;2024-02-04T00:59:56;18.73;;;2.27;;
18376;SDS011;9315;52.624;13.544;2024-02-04T01:02:23;19.57;;;2.10;;
18376;SDS011;9315;52.624;13.544;2024-02-04T01:04:51;15.83;;;2.00;;
18376;SDS011;9315;52.624;13.544;2024-02-04T01:07:19;20.67;;;2.20;;
18376;SDS011;9315;52.624;13.544;2024-02-04T01:09:47;17.13;;;2.47;;
18376;SDS011;9315;52.624;13.544;2024-02-04T01:12:14;13.97;;;1.90;;
18376;SDS011;9315;52.624;13.544;2024-02-04T01:14:42;19.37;;;1.80;;
18376;SDS011;9315;52.624;13.544;2024-02-04T01:17:10;19.03;;;2.53;;
18376;SDS011;9315;52.624;13.544;2024-02-04T01:19:37;15.47;;;2.10;;
18376;SDS011;9315;52.624;13.544;2024-02-04T01:22:05;16.90;;;2.83;;
18376;SDS011;9315;52.624;13.544;2024-02-04T01:24:32;18.43;;;2.10;;
18376;SDS011;9315;52.624;13.544;2024-02-04T01:27:00;14.03;;;1.80;;
18376;SDS011;9315;52.624;13.544;2024-02-04T01:29:27;16.97;;;2.00;;
18376;SDS011;9315;52.624;13.544;2024-02-04T01:31:55;21.87;;;2.33;;
18376;SDS011;9315;52.624;13.544;2024-02-04T01:34:22;16.37;;;2.37;;
18376;SDS011;9315;52.624;13.544;2024-02-04T01:36:50;15.50;;;2.57;;
18376;SDS011;9315;52.624;13.544;2024-02-04T01:39:17;12.77;;;1.90;;
18376;SDS011;9315;52.624;13.544;2024-02-04T01:41:44;22.10;;;2.63;;
18376;SDS011;9315;52.624;13.544;2024-02-04T01:44:12;13.43;;;1.97;;
18376;SDS011;9315;52.624;13.544;2024-02-04T01:46:39;12.60;;;2.00;;
18376;SDS011;9315;52.624;13.544;2024-02-04T01:49:07;17.10;;;2.33;;
18376;SDS011;9315;52.624;13.544;2024-02-04T01:51:35;14.30;;;2.00;;
18376;SDS011;9315;52.624;13.544;2024-02-04T01:54:03;18.40;;;2.40;;
18376;SDS011;9315;52.624;13.544;2024-02-04T01:56:34;19.60;;;2.07;;
18376;SDS011;9315;52.624;13.544;2024-02-04T01:59:02;22.53;;;2.20;;
18376;SDS011;9315;52.624;13.544;2024-02-04T02:01:31;15.43;;;2.10;;
18376;SDS011;9315;52.624;13.544;2024-02-04T02:03:59;20.43;;;2.20;;
18376;SDS011;9315;52.624;13.544;2024-02-04T02:06:28;18.63;;;2.57;;
18376;SDS011;9315;52.624;13.544;2024-02-04T02:08:56;21.80;;;2.30;;
18376;SDS011;9315;52.624;13.544;2024-02-04T02:11:30;22.43;;;2.47;;
18376;SDS011;9315;52.624;13.544;2024-02-04T02:14:12;20.17;;;2.00;;
18376;SDS011;9315;52.624;13.544;2024-02-04T02:16:45;11.57;;;2.20;;
18376;SDS011;9315;52.624;13.544;2024-02-04T02:19:22;12.03;;;1.87;;
18376;SDS011;9315;52.624;13.544;2024-02-04T02:22:15;21.03;;;2.20;;
18376;SDS011;9315;52.624;13.544;2024-02-04T02:24:58;21.73;;;2.50;;
18376;SDS011;9315;52.624;13.544;2024-02-04T02:27:28;17.70;;;2.23;;
18376;SDS011;9315;52.624;13.544;2024-02-04T02:29:56;16.00;;;1.97;;
18376;SDS011;9315;52.624;13.544;2024-02-04T02:32:23;13.10;;;1.97;;
18376;SDS011;9315;52.624;13.544;2024-02-04T02:34:51;17.80;;;1.73;;
18376;SDS011;9315;52.624;13.544;2024-02-04T02:40:59;22.03;;;2.57;;
18376;SDS011;9315;52.624;13.544;2024-02-04T02:43:33;17.97;;;2.03;;
18376;SDS011;9315;52.624;13.544;2024-02-04T02:46:02;15.80;;;2.27;;
18376;SDS011;9315;52.624;13.544;2024-02-04T02:48:30;9.40;;;1.33;;
18376;SDS011;9315;52.624;13.544;2024-02-04T02:50:58;16.43;;;2.17;;
18376;SDS011;9315;52.624;13.544;2024-02-04T02:53:25;19.00;;;2.03;;
18376;SDS011;9315;52.624;13.544;2024-02-04T02:55:53;13.90;;;2.13;;
18376;SDS011;9315;52.624;13.544;2024-02-04T02:58:20;18.57;;;2.23;;
18376;SDS011;9315;52.624;13.544;2024-02-04T03:00:48;11.10;;;1.80;;
18376;SDS011;9315;52.624;13.544;2024-02-04T03:03:15;17.57;;;2.30;;
18376;SDS011;9315;52.624;13.544;2024-02-04T03:05:43;13.53;;;2.00;;
18376;SDS011;9315;52.624;13.544;2024-02-04T03:08:10;17.23;;;1.93;;
18376;SDS011;9315;52.624;13.544;2024-02-04T03:10:38;12.63;;;2.30;;
18376;SDS011;9315;52.624;13.544;2024-02-04T03:13:05;17.60;;;2.40;;
18376;SDS011;9315;52.624;13.544;2024-02-04T03:15:32;16.33;;;1.80;;
18376;SDS011;9315;52.624;13.544;2024-02-04T03:18:00;18.17;;;2.57;;
18376;SDS011;9315;52.624;13.544;2024-02-04T03:20:27;15.73;;;2.00;;
18376;SDS011;9315;52.624;13.544;2024-02-04T03:22:55;16.40;;;1.83;;
18376;SDS011;9315;52.624;13.544;2024-02-04T03:25:22;17.50;;;2.23;;
18376;SDS011;9315;52.624;13.544;2024-02-04T03:27:53;18.17;;;2.70;;
18376;SDS011;9315;52.624;13.544;2024-02-04T03:30:20;14.77;;;2.17;;
18376;SDS011;9315;52.624;13.544;2024-02-04T03:32:48;9.53;;;1.67;;
18376;SDS011;9315;52.624;13.544;2024-02-04T03:35:15;12.63;;;2.20;;
18376;SDS011;9315;52.624;13.544;2024-02-04T03:37:43;17.50;;;1.70;;
18376;SDS011;9315;52.624;13.544;2024-02-04T03:40:10;16.97;;;1.90;;
18376;SDS011;9315;52.624;13.544;2024-02-04T03:42:38;11.63;;;2.47;;
18376;SDS011;9315;52.624;13.544;2024-02-04T03:45:07;13.67;;;2.20;;
18376;SDS011;9315;52.624;13.544;2024-02-04T03:47:35;17.10;;;2.73;;
18376;SDS011;9315;52.624;13.544;2024-02-04T03:50:03;13.70;;;2.30;;
18376;SDS011;9315;52.624;13.544;2024-02-04T03:52:31;16.50;;;2.37;;
18376;SDS011;9315;52.624;13.544;2024-02-04T03:54:58;24.77;;;2.83;;
18376;SDS011;9315;52.624;13.544;2024-02-04T03:57:26;17.83;;;2.63;;
18376;SDS011;9315;52.624;13.544;2024-02-04T03:59:54;15.63;;;2.67;;
18376;SDS011;9315;52.624;13.544;2024-02-04T04:02:21;14.43;;;2.23;;
18376;SDS011;9315;52.624;13.544;2024-02-04T04:04:49;13.03;;;2.13;;
18376;SDS011;9315;52.624;13.544;2024-02-04T04:07:16;18.00;;;2.63;;
18376;SDS011;9315;52.624;13.544;2024-02-04T04:09:44;15.77;;;2.57;;
18376;SDS011;9315;52.624;13.544;2024-02-04T04:12:11;8.13;;;2.40;;
18376;SDS011;9315;52.624;13.544;2024-02-04T04:14:39;10.23;;;2.13;;
18376;SDS011;9315;52.624;13.544;2024-02-04T04:17:06;13.73;;;2.57;;
18376;SDS011;9315;52.624;13.544;2024-02-04T04:19:34;11.57;;;2.57;;
18376;SDS011;9315;52.624;13.544;2024-02-04T04:22:03;11.10;;;2.30;;
18376;SDS011;9315;52.624;13.544;2024-02-04T04:24:31;13.20;;;2.50;;
18376;SDS011;9315;52.624;13.544;2024-02-04T04:26:58;13.07;;;2.90;;
18376;SDS011;9315;52.624;13.544;2024-02-04T04:29:26;7.03;;;2.10;;
18376;SDS011;9315;52.624;13.544;2024-02-04T04:31:53;12.33;;;2.10;;
18376;SDS011;9315;52.624;13.544;2024-02-04T04:34:20;14.73;;;2.23;;
18376;SDS011;9315;52.624;13.544;2024-02-04T04:36:48;17.23;;;2.70;;
18376;SDS011;9315;52.624;13.544;2024-02-04T04:39:16;9.53;;;2.13;;
18376;SDS011;9315;52.624;13.544;2024-02-04T04:41:43;14.47;;;2.20;;
18376;SDS011;9315;52.624;13.544;2024-02-04T04:44:12;11.57;;;2.13;;
18376;SDS011;9315;52.624;13.544;2024-02-04T04:46:39;9.13;;;1.90;;
18376;SDS011;9315;52.624;13.544;2024-02-04T04:49:07;15.13;;;2.50;;
18376;SDS011;9315;52.624;13.544;2024-02-04T04:51:34;7.23;;;1.80;;
18376;SDS011;9315;52.624;13.544;2024-02-04T04:54:02;8.50;;;2.00;;
18376;SDS011;9315;52.624;13.544;2024-02-04T04:56:29;11.67;;;2.00;;
18376;SDS011;9315;52.624;13.544;2024-02-04T04:58:57;8.90;;;2.27;;
18376;SDS011;9315;52.624;13.544;2024-02-04T05:01:24;11.73;;;2.10;;
18376;SDS011;9315;52.624;13.544;2024-02-04T05:03:52;13.27;;;2.17;;
18376;SDS011;9315;52.624;13.544;2024-02-04T05:06:19;6.80;;;2.07;;
18376;SDS011;9315;52.624;13.544;2024-02-04T05:08:47;14.83;;;2.27;;
18376;SDS011;9315;52.624;13.544;2024-02-04T05:11:14;8.07;;;2.10;;
18376;SDS011;9315;52.624;13.544;2024-02-04T05:13:42;14.57;;;2.17;;
18376;SDS011;9315;52.624;13.544;2024-02-04T05:16:09;11.70;;;2.10;;
18376;SDS011;9315;52.624;13.544;2024-02-04T05:18:37;9.00;;;1.60;;
18376;SDS011;9315;52.624;13.544;2024-02-04T05:21:04;11.00;;;2.00;;
18376;SDS011;9315;52.624;13.544;2024-02-04T05:23:32;7.80;;;1.67;;
18376;SDS011;9315;52.624;13.544;2024-02-04T05:26:02;11.77;;;1.73;;
18376;SDS011;9315;52.624;13.544;2024-02-04T05:28:31;9.47;;;2.03;;
18376;SDS011;9315;52.624;13.544;2024-02-04T05:31:01;7.80;;;2.17;;
18376;SDS011;9315;52.624;13.544;2024-02-04T05:33:29;14.37;;;2.20;;
18376;SDS011;9315;52.624;13.544;2024-02-04T05:35:57;16.47;;;2.10;;
18376;SDS011;9315;52.624;13.544;2024-02-04T05:38:24;13.13;;;2.20;;
18376;SDS011;9315;52.624;13.544;2024-02-04T05:40:52;9.47;;;1.63;;
18376;SDS011;9315;52.624;13.544;2024-02-04T05:43:19;9.43;;;1.77;;
18376;SDS011;9315;52.624;13.544;2024-02-04T05:45:47;9.60;;;1.63;;
18376;SDS011;9315;52.624;13.544;2024-02-04T05:48:14;8.50;;;1.77;;
18376;SDS011;9315;52.624;13.544;2024-02-04T05:50:42;10.00;;;1.70;;
18376;SDS011;9315;52.624;13.544;2024-02-04T05:53:10;11.13;;;2.10;;
18376;SDS011;9315;52.624;13.544;2024-02-04T05:55:38;6.27;;;1.60;;
18376;SDS011;9315;52.624;13.544;2024-02-04T05:58:06;8.23;;;1.60;;
18376;SDS011;9315;52.624;13.544;2024-02-04T06:00:33;9.33;;;1.50;;
18376;SDS011;9315;52.624;13.544;2024-02-04T06:03:01;6.83;;;1.60;;
18376;SDS011;9315;52.624;13.544;2024-02-04T06:05:29;8.40;;;1.57;;
18376;SDS011;9315;52.624;13.544;2024-02-04T06:07:56;7.83;;;1.77;;
18376;SDS011;9315;52.624;13.544;2024-02-04T06:10:23;11.37;;;1.80;;
18376;SDS011;9315;52.624;13.544;2024-02-04T06:12:51;12.13;;;1.67;;
18376;SDS011;9315;52.624;13.544;2024-02-04T06:15:18;6.47;;;1.57;;
18376;SDS011;9315;52.624;13.544;2024-02-04T06:17:48;8.20;;;1.43;;
18376;SDS011;9315;52.624;13.544;2024-02-04T06:20:16;7.00;;;1.27;;
18376;SDS011;9315;52.624;13.544;2024-02-04T06:22:45;11.47;;;1.43;;
18376;SDS011;9315;52.624;13.544;2024-02-04T06:25:12;10.00;;;1.40;;
18376;SDS011;9315;52.624;13.544;2024-02-04T06:27:40;11.70;;;1.77;;
18376;SDS011;9315;52.624;13.544;2024-02-04T06:30:07;8.50;;;1.43;;
18376;SDS011;9315;52.624;13.544;2024-02-04T06:32:36;5.30;;;1.50;;
18376;SDS011;9315;52.624;13.544;2024-02-04T06:35:04;8.33;;;1.40;;
18376;SDS011;9315;52.624;13.544;2024-02-04T06:37:33;7.77;;;1.33;;
18376;SDS011;9315;52.624;13.544;2024-02-04T06:40:00;11.57;;;1.83;;
18376;SDS011;9315;52.624;13.544;2024-02-04T06:42:28;15.07;;;1.53;;
18376;SDS011;9315;52.624;13.544;2024-02-04T06:44:55;11.43;;;1.80;;
18376;SDS011;9315;52.624;13.544;2024-02-04T06:47:23;12.90;;;2.03;;
18376;SDS011;9315;52.624;13.544;2024-02-04T06:49:50;9.60;;;1.60;;
18376;SDS011;9315;52.624;13.544;2024-02-04T06:52:18;7.43;;;1.90;;
18376;SDS011;9315;52.624;13.544;2024-02-04T06:54:45;9.50;;;2.00;;
18376;SDS011;9315;52.624;13.544;2024-02-04T06:57:13;10.93;;;1.87;;
18376;SDS011;9315;52.624;13.544;2024-02-04T06:59:40;7.63;;;2.20;;
18376;SDS011;9315;52.624;13.544;2024-02-04T07:02:07;10.47;;;1.90;;
18376;SDS011;9315;52.624;13.544;2024-02-04T07:04:35;11.07;;;2.13;;
18376;SDS011;9315;52.624;13.544;2024-02-04T07:07:02;11.93;;;2.53;;
18376;SDS011;9315;52.624;13.544;2024-02-04T07:09:30;12.10;;;2.43;;
18376;SDS011;9315;52.624;13.544;2024-02-04T07:11:58;10.63;;;2.53;;
18376;SDS011;9315;52.624;13.544;2024-02-04T07:14:25;10.17;;;2.40;;
18376;SDS011;9315;52.624;13.544;2024-02-04T07:16:52;8.73;;;2.20;;
18376;SDS011;9315;52.624;13.544;2024-02-04T07:19:20;8.40;;;2.57;;
18376;SDS011;9315;52.624;13.544;2024-02-04T07:21:47;9.83;;;2.67;;
18376;SDS011;9315;52.624;13.544;2024-02-04T07:24:15;8.70;;;2.80;;
18376;SDS011;9315;52.624;13.544;2024-02-04T07:26:42;15.40;;;3.13;;
18376;SDS011;9315;52.624;13.544;2024-02-04T07:29:12;11.23;;;3.07;;
18376;SDS011;9315;52.624;13.544;2024-02-04T07:31:42;11.03;;;3.43;;
18376;SDS011;9315;52.624;13.544;2024-02-04T07:34:09;15.00;;;3.60;;
18376;SDS011;9315;52.624;13.544;2024-02-04T07:36:38;11.40;;;2.90;;
18376;SDS011;9315;52.624;13.544;2024-02-04T07:39:06;12.33;;;3.90;;
18376;SDS011;9315;52.624;13.544;2024-02-04T07:41:34;11.53;;;3.70;;
18376;SDS011;9315;52.624;13.544;2024-02-04T07:44:01;8.63;;;3.20;;
18376;SDS011;9315;52.624;13.544;2024-02-04T07:46:29;14.97;;;3.70;;
18376;SDS011;9315;52.624;13.544;2024-02-04T07:48:57;12.83;;;3.77;;
18376;SDS011;9315;52.624;13.544;2024-02-04T07:51:24;12.07;;;4.20;;
18376;SDS011;9315;52.624;13.544;2024-02-04T07:53:52;9.63;;;3.87;;
18376;SDS011;9315;52.624;13.544;2024-02-04T07:56:19;14.50;;;4.07;;
18376;SDS011;9315;52.624;13.544;2024-02-04T07:58:47;7.93;;;4.13;;
18376;SDS011;9315;52.624;13.544;2024-02-04T08:01:14;10.00;;;4.03;;
18376;SDS011;9315;52.624;13.544;2024-02-04T08:03:43;10.10;;;3.07;;
18376;SDS011;9315;52.624;13.544;2024-02-04T08:06:10;10.03;;;3.93;;
18376;SDS011;9315;52.624;13.544;2024-02-04T08:08:38;12.20;;;3.87;;
18376;SDS011;9315;52.624;13.544;2024-02-04T08:11:05;11.93;;;3.57;;
18376;SDS011;9315;52.624;13.544;2024-02-04T08:13:32;8.40;;;3.13;;
18376;SDS011;9315;52.624;13.544;2024-02-04T08:16:00;8.77;;;3.80;;
18376;SDS011;9315;52.624;13.544;2024-02-04T08:18:28;10.83;;;4.03;;
18376;SDS011;9315;52.624;13.544;2024-02-04T08:20:55;9.33;;;3.50;;
18376;SDS011;9315;52.624;13.544;2024-02-04T08:23:23;11.70;;;3.77;;
18376;SDS011;9315;52.624;13.544;2024-02-04T08:25:51;14.10;;;4.17;;
18376;SDS011;9315;52.624;13.544;2024-02-04T08:28:18;15.87;;;4.27;;
18376;SDS011;9315;52.624;13.544;2024-02-04T08:30:46;16.77;;;4.00;;
18376;SDS011;9315;52.624;13.544;2024-02-04T08:33:13;14.97;;;3.60;;
18376;SDS011;9315;52.624;13.544;2024-02-04T08:35:41;11.47;;;3.33;;
18376;SDS011;9315;52.624;13.544;2024-02-04T08:38:08;13.37;;;3.77;;
18376;SDS011;9315;52.624;13.544;2024-02-04T08:40:36;14.37;;;4.00;;
18376;SDS011;9315;52.624;13.544;2024-02-04T08:43:03;14.03;;;3.07;;
18376;SDS011;9315;52.624;13.544;2024-02-04T08:45:31;14.00;;;3.57;;
18376;SDS011;9315;52.624;13.544;2024-02-04T08:47:58;12.47;;;3.50;;
18376;SDS011;9315;52.624;13.544;2024-02-04T08:50:26;11.97;;;2.93;;
18376;SDS011;9315;52.624;13.544;2024-02-04T08:52:56;9.67;;;2.60;;
18376;SDS011;9315;52.624;13.544;2024-02-04T08:55:23;12.97;;;3.20;;
18376;SDS011;9315;52.624;13.544;2024-02-04T08:57:50;10.93;;;3.03;;
18376;SDS011;9315;52.624;13.544;2024-02-04T09:00:19;11.97;;;3.07;;
18376;SDS011;9315;52.624;13.544;2024-02-04T09:02:48;9.77;;;2.47;;
18376;SDS011;9315;52.624;13.544;2024-02-04T09:05:15;11.70;;;2.70;;
18376;SDS011;9315;52.624;13.544;2024-02-04T09:07:44;10.43;;;1.77;;
18376;SDS011;9315;52.624;13.544;2024-02-04T09:10:12;11.20;;;2.27;;
18376;SDS011;9315;52.624;13.544;2024-02-04T09:12:40;11.37;;;2.27;;
18376;SDS011;9315;52.624;13.544;2024-02-04T09:15:08;8.60;;;2.27;;
18376;SDS011;9315;52.624;13.544;2024-02-04T09:17:36;6.20;;;1.80;;
18376;SDS011;9315;52.624;13.544;2024-02-04T09:20:04;11.63;;;2.37;;
18376;SDS011;9315;52.624;13.544;2024-02-04T09:22:36;9.87;;;1.80;;
18376;SDS011;9315;52.624;13.544;2024-02-04T09:25:06;7.43;;;1.63;;
18376;SDS011;9315;52.624;13.544;2024-02-04T09:27:34;10.97;;;1.83;;
18376;SDS011;9315;52.624;13.544;2024-02-04T09:30:01;10.57;;;2.20;;
18376;SDS011;9315;52.624;13.544;2024-02-04T09:32:30;9.10;;;1.90;;
18376;SDS011;9315;52.624;13.544;2024-02-04T09:34:58;10.70;;;2.03;;
18376;SDS011;9315;52.624;13.544;2024-02-04T09:37:25;9.13;;;1.83;;
18376;SDS011;9315;52.624;13.544;2024-02-04T09:39:53;10.00;;;2.10;;
18376;SDS011;9315;52.624;13.544;2024-02-04T09:42:21;14.30;;;2.50;;
18376;SDS011;9315;52.624;13.544;2024-02-04T09:44:50;7.47;;;2.03;;
18376;SDS011;9315;52.624;13.544;2024-02-04T09:47:18;13.93;;;4.47;;
18376;SDS011;9315;52.624;13.544;2024-02-04T09:49:49;10.47;;;2.47;;
18376;SDS011;9315;52.624;13.544;2024-02-04T09:52:19;10.70;;;2.10;;
18376;SDS011;9315;52.624;13.544;2024-02-04T09:54:57;5.50;;;2.10;;
18376;SDS011;9315;52.624;13.544;2024-02-04T09:57:28;12.00;;;1.97;;
18376;SDS011;9315;52.624;13.544;2024-02-04T10:00:01;7.90;;;1.53;;
18376;SDS011;9315;52.624;13.544;2024-02-04T10:02:31;8.10;;;1.90;;
18376;SDS011;9315;52.624;13.544;2024-02-04T10:05:00;10.27;;;1.60;;
18376;SDS011;9315;52.624;13.544;2024-02-04T10:07:28;15.37;;;1.80;;
18376;SDS011;9315;52.624;13.544;2024-02-04T10:09:56;8.23;;;1.70;;
18376;SDS011;9315;52.624;13.544;2024-02-04T10:12:23;6.13;;;1.27;;
18376;SDS011;9315;52.624;13.544;2024-02-04T10:14:51;9.43;;;1.60;;
18376;SDS011;9315;52.624;13.544;2024-02-04T10:17:18;9.77;;;1.20;;
18376;SDS011;9315;52.624;13.544;2024-02-04T10:19:47;7.70;;;1.37;;
18376;SDS011;9315;52.624;13.544;2024-02-04T10:22:15;9.00;;;1.20;;
18376;SDS011;9315;52.624;13.544;2024-02-04T10:24:44;6.77;;;1.60;;
18376;SDS011;9315;52.624;13.544;2024-02-04T10:27:14;8.07;;;1.40;;
18376;SDS011;9315;52.624;13.544;2024-02-04T10:29:54;9.40;;;1.40;;
18376;SDS011;9315;52.624;13.544;2024-02-04T10:32:23;6.10;;;1.20;;
18376;SDS011;9315;52.624;13.544;2024-02-04T10:34:51;5.77;;;0.97;;
18376;SDS011;9315;52.624;13.544;2024-02-04T10:37:19;5.87;;;1.20;;
18376;SDS011;9315;52.624;13.544;2024-02-04T10:39:46;4.50;;;0.80;;
18376;SDS011;9315;52.624;13.544;2024-02-04T10:42:14;5.63;;;1.00;;
18376;SDS011;9315;52.624;13.544;2024-02-04T10:44:43;6.13;;;1.17;;
18376;SDS011;9315;52.624;13.544;2024-02-04T10:47:13;6.23;;;1.00;;
18376;SDS011;9315;52.624;13.544;2024-02-04T10:49:50;5.90;;;1.13;;
18376;SDS011;9315;52.624;13.544;2024-02-04T10:52:20;7.87;;;1.20;;
18376;SDS011;9315;52.624;13.544;2024-02-04T10:54:50;4.50;;;1.00;;
18376;SDS011;9315;52.624;13.544;2024-02-04T10:57:22;6.97;;;1.10;;
18376;SDS011;9315;52.624;13.544;2024-02-04T10:59:49;6.17;;;1.30;;
18376;SDS011;9315;52.624;13.544;2024-02-04T11:02:20;7.43;;;1.27;;
18376;SDS011;9315;52.624;13.544;2024-02-04T11:04:48;9.23;;;1.20;;
18376;SDS011;9315;52.624;13.544;2024-02-04T11:07:17;6.80;;;1.00;;
18376;SDS011;9315;52.624;13.544;2024-02-04T11:09:47;7.70;;;0.90;;
18376;SDS011;9315;52.624;13.544;2024-02-04T11:12:18;5.43;;;1.10;;
18376;SDS011;9315;52.624;13.544;2024-02-04T11:14:48;6.63;;;1.77;;
18376;SDS011;9315;52.624;13.544;2024-02-04T11:26:43;5.43;;;0.83;;
18376;SDS011;9315;52.624;13.544;2024-02-04T11:29:11;6.97;;;1.13;;
18376;SDS011;9315;52.624;13.544;2024-02-04T11:31:39;5.60;;;1.10;;
18376;SDS011;9315;52.624;13.544;2024-02-04T11:34:08;8.90;;;1.40;;
18376;SDS011;9315;52.624;13.544;2024-02-04T11:36:39;5.43;;;0.90;;
18376;SDS011;9315;52.624;13.544;2024-02-04T11:39:13;9.90;;;1.30;;
18376;SDS011;9315;52.624;13.544;2024-02-04T11:41:51;4.03;;;0.90;;
18376;SDS011;9315;52.624;13.544;2024-02-04T11:44:25;6.50;;;1.40;;
18376;SDS011;9315;52.624;13.544;2024-02-04T11:46:54;5.63;;;1.07;;
18376;SDS011;9315;52.624;13.544;2024-02-04T11:49:24;8.63;;;1.23;;
18376;SDS011;9315;52.624;13.544;2024-02-04T11:51:54;7.07;;;1.13;;
18376;SDS011;9315;52.624;13.544;2024-02-04T11:54:21;6.40;;;0.80;;
18376;SDS011;9315;52.624;13.544;2024-02-04T11:56:52;10.93;;;1.10;;
18376;SDS011;9315;52.624;13.544;2024-02-04T11:59:20;8.27;;;1.30;;
18376;SDS011;9315;52.624;13.544;2024-02-04T12:01:54;6.97;;;1.53;;
18376;SDS011;9315;52.624;13.544;2024-02-04T12:04:23;8.13;;;1.00;;
18376;SDS011;9315;52.624;13.544;2024-02-04T12:06:54;3.57;;;0.93;;
18376;SDS011;9315;52.624;13.544;2024-02-04T12:09:23;9.67;;;1.23;;
18376;SDS011;9315;52.624;13.544;2024-02-04T12:11:53;6.10;;;1.00;;
18376;SDS011;9315;52.624;13.544;2024-02-04T12:14:22;4.93;;;0.80;;
18376;SDS011;9315;52.624;13.544;2024-02-04T12:16:49;6.33;;;1.00;;
18376;SDS011;9315;52.624;13.544;2024-02-04T12:19:18;5.23;;;1.17;;
18376;SDS011;9315;52.624;13.544;2024-02-04T12:21:45;5.20;;;1.10;;
18376;SDS011;9315;52.624;13.544;2024-02-04T12:24:13;6.63;;;1.13;;
18376;SDS011;9315;52.624;13.544;2024-02-04T12:26:41;6.97;;;0.97;;
18376;SDS011;9315;52.624;13.544;2024-02-04T12:29:11;4.57;;;1.00;;
18376;SDS011;9315;52.624;13.544;2024-02-04T12:31:40;9.27;;;1.00;;
18376;SDS011;9315;52.624;13.544;2024-02-04T12:34:08;8.47;;;1.27;;
18376;SDS011;9315;52.624;13.544;2024-02-04T12:36:36;5.47;;;1.10;;
18376;SDS011;9315;52.624;13.544;2024-02-04T12:39:03;5.27;;;1.20;;
18376;SDS011;9315;52.624;13.544;2024-02-04T12:41:34;9.50;;;1.50;;
18376;SDS011;9315;52.624;13.544;2024-02-04T12:44:01;7.23;;;1.13;;
18376;SDS011;9315;52.624;13.544;2024-02-04T12:46:31;7.40;;;0.93;;
18376;SDS011;9315;52.624;13.544;2024-02-04T12:48:59;6.70;;;0.90;;
18376;SDS011;9315;52.624;13.544;2024-02-04T12:51:32;8.20;;;1.30;;
18376;SDS011;9315;52.624;13.544;2024-02-04T12:54:07;4.97;;;1.17;;
18376;SDS011;9315;52.624;13.544;2024-02-04T12:56:40;8.17;;;1.00;;
18376;SDS011;9315;52.624;13.544;2024-02-04T12:59:08;9.17;;;1.30;;
18376;SDS011;9315;52.624;13.544;2024-02-04T13:01:40;8.83;;;1.03;;
18376;SDS011;9315;52.624;13.544;2024-02-04T13:04:07;6.03;;;1.00;;
18376;SDS011;9315;52.624;13.544;2024-02-04T13:06:37;9.43;;;1.30;;
18376;SDS011;9315;52.624;13.544;2024-02-04T13:09:06;12.80;;;1.47;;
18376;SDS011;9315;52.624;13.544;2024-02-04T13:11:35;9.07;;;1.47;;
18376;SDS011;9315;52.624;13.544;2024-02-04T13:14:04;9.57;;;1.50;;
18376;SDS011;9315;52.624;13.544;2024-02-04T13:16:31;4.27;;;0.93;;
18376;SDS011;9315;52.624;13.544;2024-02-04T13:18:59;5.67;;;1.10;;
18376;SDS011;9315;52.624;13.544;2024-02-04T13:21:26;8.60;;;1.27;;
18376;SDS011;9315;52.624;13.544;2024-02-04T13:23:55;4.90;;;1.33;;
18376;SDS011;9315;52.624;13.544;2024-02-04T13:26:23;9.60;;;1.37;;
18376;SDS011;9315;52.624;13.544;2024-02-04T13:28:50;8.40;;;1.07;;
18376;SDS011;9315;52.624;13.544;2024-02-04T13:31:18;6.50;;;1.00;;
18376;SDS011;9315;52.624;13.544;2024-02-04T13:33:46;7.67;;;1.00;;
18376;SDS011;9315;52.624;13.544;2024-02-04T13:36:13;6.03;;;1.10;;
18376;SDS011;9315;52.624;13.544;2024-02-04T13:38:41;8.60;;;1.37;;
18376;SDS011;9315;52.624;13.544;2024-02-04T13:41:12;10.03;;;1.27;;
18376;SDS011;9315;52.624;13.544;2024-02-04T13:43:39;8.13;;;1.13;;
18376;SDS011;9315;52.624;13.544;2024-02-04T13:46:06;4.97;;;0.90;;
18376;SDS011;9315;52.624;13.544;2024-02-04T13:48:34;4.10;;;0.83;;
18376;SDS011;9315;52.624;13.544;2024-02-04T13:51:02;13.23;;;1.23;;
18376;SDS011;9315;52.624;13.544;2024-02-04T13:53:29;8.83;;;1.40;;
18376;SDS011;9315;52.624;13.544;2024-02-04T13:56:00;7.33;;;0.90;;
18376;SDS011;9315;52.624;13.544;2024-02-04T13:58:28;7.67;;;1.27;;
18376;SDS011;9315;52.624;13.544;2024-02-04T14:00:56;6.23;;;0.90;;
18376;SDS011;9315;52.624;13.544;2024-02-04T14:03:24;9.97;;;1.30;;
18376;SDS011;9315;52.624;13.544;2024-02-04T14:05:52;12.80;;;1.70;;
18376;SDS011;9315;52.624;13.544;2024-02-04T14:08:21;7.47;;;1.13;;
18376;SDS011;9315;52.624;13.544;2024-02-04T14:10:50;9.70;;;1.17;;
18376;SDS011;9315;52.624;13.544;2024-02-04T14:13:18;8.37;;;1.30;;
18376;SDS011;9315;52.624;13.544;2024-02-04T14:15:45;7.50;;;1.33;;
18376;SDS011;9315;52.624;13.544;2024-02-04T14:18:13;9.87;;;1.60;;
18376;SDS011;9315;52.624;13.544;2024-02-04T14:20:40;8.33;;;1.33;;
18376;SDS011;9315;52.624;13.544;2024-02-04T14:23:07;7.20;;;1.27;;
18376;SDS011;9315;52.624;13.544;2024-02-04T14:25:35;9.57;;;1.40;;
18376;SDS011;9315;52.624;13.544;2024-02-04T14:28:03;8.37;;;1.77;;
18376;SDS011;9315;52.624;13.544;2024-02-04T14:30:31;6.73;;;1.23;;
18376;SDS011;9315;52.624;13.544;2024-02-04T14:32:59;9.10;;;1.20;;
18376;SDS011;9315;52.624;13.544;2024-02-04T14:35:28;7.53;;;1.30;;
18376;SDS011;9315;52.624;13.544;2024-02-04T14:37:57;8.67;;;1.60;;
18376;SDS011;9315;52.624;13.544;2024-02-04T14:40:25;9.17;;;1.30;;
18376;SDS011;9315;52.624;13.544;2024-02-04T14:42:52;7.57;;;1.43;;
18376;SDS011;9315;52.624;13.544;2024-02-04T14:45:20;7.67;;;1.33;;
18376;SDS011;9315;52.624;13.544;2024-02-04T14:47:47;8.43;;;1.50;;
18376;SDS011;9315;52.624;13.544;2024-02-04T14:50:15;14.43;;;1.87;;
18376;SDS011;9315;52.624;13.544;2024-02-04T14:52:45;9.67;;;1.37;;
18376;SDS011;9315;52.624;13.544;2024-02-04T14:55:12;10.73;;;1.67;;
18376;SDS011;9315;52.624;13.544;2024-02-04T14:57:42;6.33;;;1.43;;
18376;SDS011;9315;52.624;13.544;2024-02-04T15:00:10;6.47;;;1.20;;